Time,TemperatureF,DewpointF,PressureIn,WindDirection,WindDirectionDegrees,WindSpeedMPH,WindSpeedGustMPH,Humidity,HourlyPrecipIn,Conditions,Clouds,dailyrainin,SoftwareType,DateUTC
2013-02-28 00:02:00,37.4,33.3,30.28,North,0,0.7,4.5,85,0.00,,,0.00,pywws,2013-02-28 00:02:00,
2013-02-28 00:07:00,37.4,33.3,30.27,East,90,0.7,3.1,85,0.00,,,0.00,pywws,2013-02-28 00:07:00,
2013-02-28 00:12:00,37.2,33.4,30.27,NE,45,2.2,3.8,86,0.00,,,0.00,pywws,2013-02-28 00:12:00,
2013-02-28 00:18:00,37.4,33.3,30.27,East,90,1.6,4.5,85,0.00,,,0.00,pywws,2013-02-28 00:18:00,
2013-02-28 00:23:00,37.4,33.6,30.27,NE,45,3.8,6.9,86,0.00,,,0.00,pywws,2013-02-28 00:23:00,
2013-02-28 00:28:00,37.4,33.6,30.27,North,0,1.6,6.0,86,0.00,,,0.00,pywws,2013-02-28 00:28:00,
2013-02-28 00:33:00,37.4,33.6,30.27,North,0,0.7,3.1,86,0.00,,,0.00,pywws,2013-02-28 00:33:00,
2013-02-28 00:38:00,37.4,33.6,30.27,North,0,2.2,6.9,86,0.00,,,0.00,pywws,2013-02-28 00:38:00,
2013-02-28 00:43:00,37.4,33.6,30.27,NNE,22,3.1,4.5,86,0.00,,,0.00,pywws,2013-02-28 00:43:00,
2013-02-28 00:48:00,37.6,33.8,30.26,NE,45,2.2,5.4,86,0.00,,,0.00,pywws,2013-02-28 00:48:00,
2013-02-28 00:53:00,37.6,33.8,30.26,NE,45,3.1,6.0,86,0.00,,,0.00,pywws,2013-02-28 00:53:00,
2013-02-28 00:59:00,37.6,33.8,30.26,North,0,3.1,4.5,86,0.00,,,0.00,pywws,2013-02-28 00:59:00,
2013-02-28 01:04:00,37.6,33.8,30.26,NE,45,1.6,3.1,86,0.00,,,0.00,pywws,2013-02-28 01:04:00,
2013-02-28 01:09:00,37.6,34.1,30.26,NE,45,3.8,7.6,87,0.00,,,0.00,pywws,2013-02-28 01:09:00,
2013-02-28 01:14:00,37.8,34.0,30.26,ENE,68,3.1,5.4,86,0.00,,,0.00,pywws,2013-02-28 01:14:00,
2013-02-28 01:19:00,37.8,34.2,30.26,NE,45,3.1,6.0,87,0.00,,,0.00,pywws,2013-02-28 01:19:00,
2013-02-28 01:24:00,37.8,34.2,30.26,NE,45,3.1,5.4,87,0.00,,,0.00,pywws,2013-02-28 01:24:00,
2013-02-28 01:30:00,37.8,34.2,30.26,North,0,3.8,6.0,87,0.00,,,0.00,pywws,2013-02-28 01:30:00,
2013-02-28 01:35:00,37.8,34.2,30.26,East,90,2.2,7.6,87,0.00,,,0.00,pywws,2013-02-28 01:35:00,
2013-02-28 01:40:00,37.8,34.2,30.25,NNE,22,3.1,6.0,87,0.00,,,0.00,pywws,2013-02-28 01:40:00,
2013-02-28 01:45:00,37.8,34.2,30.25,East,90,2.2,3.8,87,0.00,,,0.00,pywws,2013-02-28 01:45:00,
2013-02-28 01:50:00,37.8,34.2,30.25,ENE,68,0.7,3.8,87,0.00,,,0.00,pywws,2013-02-28 01:50:00,
2013-02-28 01:56:00,37.8,34.2,30.24,NW,315,3.1,6.0,87,0.00,,,0.00,pywws,2013-02-28 01:56:00,
2013-02-28 02:01:00,37.8,34.2,30.24,NE,45,3.8,6.0,87,0.00,,,0.00,pywws,2013-02-28 02:01:00,
2013-02-28 02:06:00,37.8,34.2,30.24,North,0,2.2,4.5,87,0.00,,,0.00,pywws,2013-02-28 02:06:00,
2013-02-28 02:11:00,37.8,34.2,30.24,NE,45,3.1,7.6,87,0.00,,,0.00,pywws,2013-02-28 02:11:00,
2013-02-28 02:16:00,37.8,34.2,30.24,North,0,3.1,5.4,87,0.00,,,0.00,pywws,2013-02-28 02:16:00,
2013-02-28 02:21:00,37.6,34.1,30.24,NE,45,0.7,3.8,87,0.00,,,0.00,pywws,2013-02-28 02:21:00,
2013-02-28 02:27:00,37.6,34.1,30.23,North,0,3.1,6.0,87,0.00,,,0.00,pywws,2013-02-28 02:27:00,
2013-02-28 02:32:00,37.6,34.4,30.23,NNE,22,1.6,3.1,88,0.00,,,0.00,pywws,2013-02-28 02:32:00,
2013-02-28 02:37:00,37.6,34.4,30.23,East,90,2.2,4.5,88,0.00,,,0.00,pywws,2013-02-28 02:37:00,
2013-02-28 02:42:00,37.6,34.4,30.22,North,0,3.1,9.8,88,0.00,,,0.00,pywws,2013-02-28 02:42:00,
2013-02-28 02:48:00,37.6,34.4,30.22,NE,45,2.2,5.4,88,0.00,,,0.00,pywws,2013-02-28 02:48:00,
2013-02-28 02:53:00,37.6,34.4,30.22,NE,45,1.6,3.1,88,0.00,,,0.00,pywws,2013-02-28 02:53:00,
2013-02-28 02:58:00,37.6,34.6,30.22,NNE,22,1.6,3.8,89,0.00,,,0.00,pywws,2013-02-28 02:58:00,
2013-02-28 03:03:00,37.6,34.6,30.22,NE,45,0.7,2.2,89,0.00,,,0.00,pywws,2013-02-28 03:03:00,
2013-02-28 03:08:00,37.6,34.6,30.22,SE,135,0.0,2.2,89,0.00,,,0.00,pywws,2013-02-28 03:08:00,
2013-02-28 03:13:00,37.4,34.2,30.22,West,270,1.6,3.8,88,0.00,,,0.00,pywws,2013-02-28 03:13:00,
2013-02-28 03:18:00,37.2,34.0,30.22,NE,45,1.6,4.5,88,0.00,,,0.00,pywws,2013-02-28 03:18:00,
2013-02-28 03:23:00,36.9,33.6,30.21,ENE,68,1.6,3.8,88,0.00,,,0.00,pywws,2013-02-28 03:23:00,
2013-02-28 03:29:00,36.7,33.5,30.22,East,90,0.7,2.2,88,0.00,,,0.00,pywws,2013-02-28 03:29:00,
2013-02-28 03:34:00,36.5,33.6,30.22,SE,135,2.2,4.5,89,0.00,,,0.00,pywws,2013-02-28 03:34:00,
2013-02-28 03:39:00,36.3,33.1,30.21,North,0,1.6,3.8,88,0.00,,,0.00,pywws,2013-02-28 03:39:00,
2013-02-28 03:44:00,36.0,33.0,30.21,North,0,0.7,2.2,89,0.00,,,0.00,pywws,2013-02-28 03:44:00,
2013-02-28 03:49:00,35.8,32.9,30.21,North,0,1.6,3.8,89,0.00,,,0.00,pywws,2013-02-28 03:49:00,
2013-02-28 03:55:00,35.8,32.9,30.21,NNE,22,0.0,2.2,89,0.00,,,0.00,pywws,2013-02-28 03:55:00,
2013-02-28 04:01:00,35.6,32.7,30.21,SW,225,2.2,5.4,89,0.00,,,0.00,pywws,2013-02-28 04:01:00,
2013-02-28 04:06:00,35.6,32.7,30.21,SW,225,2.2,5.4,89,0.00,,,0.00,pywws,2013-02-28 04:06:00,
2013-02-28 04:11:00,35.4,32.5,30.21,NE,45,0.7,3.1,89,0.00,,,0.00,pywws,2013-02-28 04:11:00,
2013-02-28 04:16:00,35.2,32.3,30.21,NE,45,0.0,1.6,89,0.00,,,0.00,pywws,2013-02-28 04:16:00,
2013-02-28 04:21:00,35.1,32.4,30.20,NE,45,0.0,1.6,90,0.00,,,0.00,pywws,2013-02-28 04:21:00,
2013-02-28 04:26:00,35.1,32.7,30.21,NE,45,0.7,3.1,91,0.00,,,0.00,pywws,2013-02-28 04:26:00,
2013-02-28 04:32:00,34.9,32.3,30.21,NE,45,0.0,2.2,90,0.00,,,0.00,pywws,2013-02-28 04:32:00,
2013-02-28 04:37:00,34.9,32.3,30.20,NE,45,0.0,0.7,90,0.00,,,0.00,pywws,2013-02-28 04:37:00,
2013-02-28 04:42:00,34.9,32.3,30.21,NE,45,0.7,2.2,90,0.00,,,0.00,pywws,2013-02-28 04:42:00,
2013-02-28 04:48:00,34.9,32.3,30.20,North,0,0.0,0.7,90,0.00,,,0.00,pywws,2013-02-28 04:48:00,
2013-02-28 04:53:00,34.7,32.1,30.20,NE,45,0.0,0.0,90,0.00,,,0.00,pywws,2013-02-28 04:53:00,
2013-02-28 04:58:00,34.9,32.3,30.20,North,0,0.0,1.6,90,0.00,,,0.00,pywws,2013-02-28 04:58:00,
2013-02-28 05:00:00,34.7,32.1,30.20,NE,45,0.0,1.6,90,0.00,,,0.00,pywws,2013-02-28 05:00:00,
2013-02-28 05:01:00,34.7,32.1,30.20,NE,45,0.0,1.6,90,0.00,,,0.00,pywws,2013-02-28 05:01:00,
2013-02-28 05:06:00,34.7,32.1,30.20,NE,45,0.0,1.6,90,0.00,,,0.00,pywws,2013-02-28 05:06:00,
2013-02-28 05:12:00,34.9,32.3,30.20,NE,45,0.0,1.6,90,0.00,,,0.00,pywws,2013-02-28 05:12:00,
2013-02-28 05:17:00,35.1,32.4,30.20,NE,45,0.0,0.7,90,0.00,,,0.00,pywws,2013-02-28 05:17:00,
2013-02-28 05:22:00,35.1,32.2,30.20,North,0,0.7,1.6,89,0.00,,,0.00,pywws,2013-02-28 05:22:00,
2013-02-28 05:27:00,35.2,32.3,30.20,North,0,0.0,1.6,89,0.00,,,0.00,pywws,2013-02-28 05:27:00,
2013-02-28 05:32:00,35.4,32.5,30.19,North,0,0.0,2.2,89,0.00,,,0.00,pywws,2013-02-28 05:32:00,
2013-02-28 05:37:00,35.4,32.5,30.19,NE,45,0.0,0.7,89,0.00,,,0.00,pywws,2013-02-28 05:37:00,
2013-02-28 05:42:00,35.6,32.4,30.19,NE,45,0.0,0.7,88,0.00,,,0.00,pywws,2013-02-28 05:42:00,
2013-02-28 05:47:00,35.6,32.4,30.19,NE,45,0.0,0.7,88,0.00,,,0.00,pywws,2013-02-28 05:47:00,
2013-02-28 05:52:00,36.0,32.5,30.19,North,0,0.0,1.6,87,0.00,,,0.00,pywws,2013-02-28 05:52:00,
2013-02-28 05:57:00,36.3,32.8,30.19,NE,45,0.7,3.1,87,0.00,,,0.00,pywws,2013-02-28 05:57:00,
2013-02-28 06:02:00,36.3,32.5,30.19,NE,45,0.0,2.2,86,0.00,,,0.00,pywws,2013-02-28 06:02:00,
2013-02-28 06:08:00,36.3,32.5,30.19,NNE,22,0.7,3.8,86,0.00,,,0.00,pywws,2013-02-28 06:08:00,
2013-02-28 06:13:00,36.3,32.5,30.19,NE,45,0.0,1.6,86,0.00,,,0.00,pywws,2013-02-28 06:13:00,
2013-02-28 06:18:00,36.5,32.7,30.19,North,0,0.0,1.6,86,0.00,,,0.00,pywws,2013-02-28 06:18:00,
2013-02-28 06:23:00,36.5,32.4,30.19,NE,45,0.0,3.1,85,0.00,,,0.00,pywws,2013-02-28 06:23:00,
2013-02-28 06:28:00,36.7,32.6,30.19,West,270,0.7,2.2,85,0.00,,,0.00,pywws,2013-02-28 06:28:00,
2013-02-28 06:33:00,36.7,32.6,30.19,North,0,0.0,2.2,85,0.00,,,0.00,pywws,2013-02-28 06:33:00,
2013-02-28 06:38:00,36.7,32.6,30.19,WNW,292,0.7,2.2,85,0.00,,,0.00,pywws,2013-02-28 06:38:00,
2013-02-28 06:44:00,36.9,32.8,30.19,NE,45,0.0,1.6,85,0.00,,,0.00,pywws,2013-02-28 06:44:00,
2013-02-28 06:49:00,36.9,32.5,30.19,NNE,22,3.1,6.9,84,0.00,,,0.00,pywws,2013-02-28 06:49:00,
2013-02-28 06:54:00,37.0,32.7,30.19,NE,45,1.6,3.1,84,0.00,,,0.00,pywws,2013-02-28 06:54:00,
2013-02-28 06:59:00,37.2,32.8,30.19,NE,45,3.8,7.6,84,0.00,,,0.00,pywws,2013-02-28 06:59:00,
2013-02-28 07:04:00,37.2,32.8,30.19,NE,45,3.8,7.6,84,0.00,,,0.00,pywws,2013-02-28 07:04:00,
2013-02-28 07:09:00,37.4,33.0,30.20,NNW,338,1.6,4.5,84,0.00,,,0.00,pywws,2013-02-28 07:09:00,
2013-02-28 07:14:00,37.6,33.2,30.19,NE,45,0.7,4.5,84,0.00,,,0.00,pywws,2013-02-28 07:14:00,
2013-02-28 07:19:00,37.6,32.9,30.19,North,0,3.1,8.3,83,0.00,,,0.00,pywws,2013-02-28 07:19:00,
2013-02-28 07:24:00,37.8,33.1,30.19,NE,45,2.2,4.5,83,0.00,,,0.00,pywws,2013-02-28 07:24:00,
2013-02-28 07:29:00,37.8,33.1,30.19,NE,45,3.1,6.0,83,0.00,,,0.00,pywws,2013-02-28 07:29:00,
2013-02-28 07:35:00,37.9,33.2,30.19,ENE,68,1.6,4.5,83,0.00,,,0.00,pywws,2013-02-28 07:35:00,
2013-02-28 07:40:00,37.9,33.2,30.20,NNE,22,1.6,7.6,83,0.00,,,0.00,pywws,2013-02-28 07:40:00,
2013-02-28 07:45:00,38.1,33.4,30.20,ENE,68,3.1,8.3,83,0.00,,,0.00,pywws,2013-02-28 07:45:00,
2013-02-28 07:50:00,38.1,33.4,30.20,NE,45,3.1,5.4,83,0.00,,,0.00,pywws,2013-02-28 07:50:00,
2013-02-28 07:55:00,38.1,33.4,30.20,North,0,1.6,3.1,83,0.00,,,0.00,pywws,2013-02-28 07:55:00,
2013-02-28 08:01:00,38.3,33.6,30.20,NE,45,1.6,3.8,83,0.00,,,0.00,pywws,2013-02-28 08:01:00,
2013-02-28 08:06:00,38.3,33.6,30.21,NE,45,1.6,3.8,83,0.00,,,0.00,pywws,2013-02-28 08:06:00,
2013-02-28 08:11:00,38.3,33.6,30.20,NE,45,1.6,3.8,83,0.00,,,0.00,pywws,2013-02-28 08:11:00,
2013-02-28 08:16:00,38.3,33.6,30.20,NE,45,1.6,3.8,83,0.00,,,0.00,pywws,2013-02-28 08:16:00,
2013-02-28 08:21:00,38.3,33.6,30.20,NE,45,1.6,4.5,83,0.00,,,0.00,pywws,2013-02-28 08:21:00,
2013-02-28 08:26:00,38.3,33.6,30.20,NE,45,1.6,4.5,83,0.00,,,0.00,pywws,2013-02-28 08:26:00,
2013-02-28 08:31:00,38.5,33.5,30.20,NE,45,0.7,2.2,82,0.00,,,0.00,pywws,2013-02-28 08:31:00,
2013-02-28 08:36:00,38.8,33.5,30.20,East,90,4.5,9.8,81,0.00,,,0.00,pywws,2013-02-28 08:36:00,
2013-02-28 08:41:00,39.0,33.7,30.20,NE,45,2.2,5.4,81,0.00,,,0.00,pywws,2013-02-28 08:41:00,
2013-02-28 08:46:00,39.0,33.7,30.20,North,0,3.1,5.4,81,0.00,,,0.00,pywws,2013-02-28 08:46:00,
2013-02-28 08:52:00,39.2,33.9,30.20,East,90,0.7,3.1,81,0.00,,,0.00,pywws,2013-02-28 08:52:00,
2013-02-28 08:57:00,39.2,33.9,30.20,NE,45,3.8,10.7,81,0.00,,,0.00,pywws,2013-02-28 08:57:00,
2013-02-28 09:02:00,39.2,33.6,30.20,East,90,3.8,7.6,80,0.00,,,0.00,pywws,2013-02-28 09:02:00,
2013-02-28 09:07:00,39.2,33.6,30.20,East,90,3.8,7.6,80,0.00,,,0.00,pywws,2013-02-28 09:07:00,
2013-02-28 09:12:00,39.6,33.9,30.20,NE,45,2.2,6.0,80,0.00,,,0.00,pywws,2013-02-28 09:12:00,
2013-02-28 09:17:00,39.7,34.1,30.20,SE,135,2.2,5.4,80,0.00,,,0.00,pywws,2013-02-28 09:17:00,
2013-02-28 09:23:00,39.9,34.3,30.20,North,0,1.6,3.8,80,0.00,,,0.00,pywws,2013-02-28 09:23:00,
2013-02-28 09:28:00,40.1,34.4,30.20,East,90,1.6,3.8,80,0.00,,,0.00,pywws,2013-02-28 09:28:00,
2013-02-28 09:33:00,40.3,34.3,30.19,NNE,22,3.8,9.2,79,0.00,,,0.00,pywws,2013-02-28 09:33:00,
2013-02-28 09:38:00,40.5,34.5,30.20,NNE,22,2.2,4.5,79,0.00,,,0.00,pywws,2013-02-28 09:38:00,
2013-02-28 09:43:00,40.6,34.6,30.20,NE,45,3.8,7.6,79,0.00,,,0.00,pywws,2013-02-28 09:43:00,
2013-02-28 09:48:00,40.6,34.6,30.19,NE,45,1.6,4.5,79,0.00,,,0.00,pywws,2013-02-28 09:48:00,
2013-02-28 09:53:00,40.8,34.5,30.19,NE,45,3.8,9.2,78,0.00,,,0.00,pywws,2013-02-28 09:53:00,
2013-02-28 09:58:00,41.0,34.7,30.20,NNE,22,6.0,9.8,78,0.00,,,0.00,pywws,2013-02-28 09:58:00,
2013-02-28 10:04:00,41.0,34.7,30.19,East,90,5.4,9.2,78,0.00,,,0.00,pywws,2013-02-28 10:04:00,
2013-02-28 10:09:00,41.0,34.7,30.19,North,0,6.0,9.2,78,0.00,,,0.00,pywws,2013-02-28 10:09:00,
2013-02-28 10:14:00,41.2,34.5,30.19,NE,45,3.8,6.9,77,0.00,,,0.00,pywws,2013-02-28 10:14:00,
2013-02-28 10:19:00,41.4,34.4,30.19,NE,45,4.5,9.8,76,0.00,,,0.00,pywws,2013-02-28 10:19:00,
2013-02-28 10:25:00,41.2,34.5,30.19,NE,45,6.0,11.4,77,0.00,,,0.00,pywws,2013-02-28 10:25:00,
2013-02-28 10:30:00,41.5,34.9,30.19,North,0,1.6,6.0,77,0.00,,,0.00,pywws,2013-02-28 10:30:00,
2013-02-28 10:35:00,41.7,34.7,30.19,North,0,0.7,2.2,76,0.00,,,0.00,pywws,2013-02-28 10:35:00,
2013-02-28 10:41:00,41.7,34.4,30.19,NE,45,6.9,9.8,75,0.00,,,0.00,pywws,2013-02-28 10:41:00,
2013-02-28 10:46:00,41.9,34.6,30.19,North,0,6.0,10.7,75,0.00,,,0.00,pywws,2013-02-28 10:46:00,
2013-02-28 10:52:00,42.1,34.4,30.19,NW,315,6.9,10.7,74,0.00,,,0.00,pywws,2013-02-28 10:52:00,
2013-02-28 10:57:00,42.1,34.4,30.19,NNE,22,3.8,6.9,74,0.00,,,0.00,pywws,2013-02-28 10:57:00,
2013-02-28 11:02:00,41.9,34.2,30.19,NNE,22,4.5,9.8,74,0.00,,,0.00,pywws,2013-02-28 11:02:00,
2013-02-28 11:07:00,42.3,34.6,30.19,NE,45,3.1,6.0,74,0.00,,,0.00,pywws,2013-02-28 11:07:00,
2013-02-28 11:12:00,42.4,34.7,30.19,NE,45,0.7,4.5,74,0.00,,,0.00,pywws,2013-02-28 11:12:00,
2013-02-28 11:17:00,42.4,34.7,30.19,North,0,1.6,6.0,74,0.00,,,0.00,pywws,2013-02-28 11:17:00,
2013-02-28 11:22:00,42.6,34.9,30.19,North,0,3.8,6.9,74,0.00,,,0.00,pywws,2013-02-28 11:22:00,
2013-02-28 11:28:00,42.6,34.9,30.19,NE,45,3.8,6.9,74,0.00,,,0.00,pywws,2013-02-28 11:28:00,
2013-02-28 11:33:00,42.6,34.9,30.19,East,90,5.4,8.3,74,0.00,,,0.00,pywws,2013-02-28 11:33:00,
2013-02-28 11:38:00,42.6,34.9,30.19,East,90,3.1,5.4,74,0.00,,,0.00,pywws,2013-02-28 11:38:00,
2013-02-28 11:43:00,42.6,34.9,30.19,SE,135,3.1,7.6,74,0.00,,,0.00,pywws,2013-02-28 11:43:00,
2013-02-28 11:48:00,42.8,35.1,30.19,ENE,68,2.2,4.5,74,0.00,,,0.00,pywws,2013-02-28 11:48:00,
2013-02-28 11:53:00,42.8,35.1,30.19,NE,45,3.1,6.0,74,0.00,,,0.00,pywws,2013-02-28 11:53:00,
2013-02-28 11:58:00,43.2,35.1,30.19,North,0,3.1,5.4,73,0.00,,,0.00,pywws,2013-02-28 11:58:00,
2013-02-28 12:04:00,43.3,35.3,30.19,NE,45,3.8,8.3,73,0.00,,,0.00,pywws,2013-02-28 12:04:00,
2013-02-28 12:09:00,43.7,35.6,30.19,North,0,1.6,6.0,73,0.00,,,0.00,pywws,2013-02-28 12:09:00,
2013-02-28 12:14:00,43.9,35.1,30.18,North,0,4.5,9.2,71,0.00,,,0.00,pywws,2013-02-28 12:14:00,
2013-02-28 12:20:00,43.7,35.3,30.18,NE,45,4.5,7.6,72,0.00,,,0.00,pywws,2013-02-28 12:20:00,
2013-02-28 12:25:00,43.7,35.3,30.18,NE,45,3.8,6.9,72,0.00,,,0.00,pywws,2013-02-28 12:25:00,
2013-02-28 12:30:00,43.7,35.3,30.18,NE,45,4.5,8.3,72,0.00,,,0.00,pywws,2013-02-28 12:30:00,
2013-02-28 12:36:00,44.1,35.6,30.18,North,0,3.1,6.9,72,0.00,,,0.00,pywws,2013-02-28 12:36:00,
2013-02-28 12:41:00,44.1,35.3,30.18,East,90,5.4,11.4,71,0.00,,,0.00,pywws,2013-02-28 12:41:00,
2013-02-28 12:46:00,43.9,35.1,30.18,East,90,4.5,9.2,71,0.00,,,0.00,pywws,2013-02-28 12:46:00,
2013-02-28 12:52:00,44.2,35.4,30.17,NE,45,3.8,6.9,71,0.00,,,0.00,pywws,2013-02-28 12:52:00,
2013-02-28 12:57:00,44.1,35.3,30.17,NE,45,3.1,6.9,71,0.00,,,0.00,pywws,2013-02-28 12:57:00,
2013-02-28 13:02:00,43.9,35.4,30.17,SE,135,4.5,8.3,72,0.00,,,0.00,pywws,2013-02-28 13:02:00,
2013-02-28 13:08:00,43.9,35.8,30.17,East,90,0.7,5.4,73,0.00,,,0.00,pywws,2013-02-28 13:08:00,
2013-02-28 13:13:00,44.1,36.0,30.17,North,0,1.6,2.2,73,0.00,,,0.00,pywws,2013-02-28 13:13:00,
2013-02-28 13:18:00,43.9,35.4,30.17,NE,45,3.1,6.0,72,0.00,,,0.00,pywws,2013-02-28 13:18:00,
2013-02-28 13:23:00,44.1,35.6,30.17,North,0,5.4,9.2,72,0.00,,,0.00,pywws,2013-02-28 13:23:00,
2013-02-28 13:28:00,44.4,36.0,30.16,NE,45,3.8,6.9,72,0.00,,,0.00,pywws,2013-02-28 13:28:00,
2013-02-28 13:33:00,44.4,35.6,30.16,North,0,6.0,11.4,71,0.00,,,0.00,pywws,2013-02-28 13:33:00,
2013-02-28 13:38:00,44.4,35.6,30.16,North,0,2.2,4.5,71,0.00,,,0.00,pywws,2013-02-28 13:38:00,
2013-02-28 13:43:00,44.4,36.0,30.16,North,0,3.8,7.6,72,0.00,,,0.00,pywws,2013-02-28 13:43:00,
2013-02-28 13:49:00,45.0,36.1,30.16,WNW,292,4.5,9.2,71,0.00,,,0.00,pywws,2013-02-28 13:49:00,
2013-02-28 13:54:00,45.0,36.1,30.16,South,180,2.2,6.0,71,0.00,,,0.00,pywws,2013-02-28 13:54:00,
2013-02-28 13:59:00,45.0,35.8,30.16,East,90,5.4,8.3,70,0.00,,,0.00,pywws,2013-02-28 13:59:00,
2013-02-28 14:04:00,45.1,36.3,30.16,NE,45,3.1,6.9,71,0.00,,,0.00,pywws,2013-02-28 14:04:00,
2013-02-28 14:09:00,45.1,36.3,30.16,NW,315,0.7,1.6,71,0.00,,,0.00,pywws,2013-02-28 14:09:00,
2013-02-28 14:16:00,45.3,36.5,30.16,NE,45,2.2,6.9,71,0.00,,,0.00,pywws,2013-02-28 14:16:00,
2013-02-28 14:21:00,45.5,36.3,30.15,NE,45,4.5,6.9,70,0.00,,,0.00,pywws,2013-02-28 14:21:00,
2013-02-28 14:26:00,45.7,36.8,30.15,NE,45,3.1,6.0,71,0.00,,,0.00,pywws,2013-02-28 14:26:00,
2013-02-28 14:31:00,45.9,36.6,30.15,SE,135,2.2,5.4,70,0.00,,,0.00,pywws,2013-02-28 14:31:00,
2013-02-28 14:36:00,46.4,37.2,30.15,North,0,0.7,1.6,70,0.00,,,0.00,pywws,2013-02-28 14:36:00,
2013-02-28 14:41:00,46.6,37.0,30.15,North,0,3.8,8.3,69,0.00,,,0.00,pywws,2013-02-28 14:41:00,
2013-02-28 14:47:00,46.6,36.6,30.14,NE,45,3.8,11.4,68,0.00,,,0.00,pywws,2013-02-28 14:47:00,
2013-02-28 14:52:00,46.6,36.6,30.14,ENE,68,3.1,7.6,68,0.00,,,0.00,pywws,2013-02-28 14:52:00,
2013-02-28 14:57:00,46.8,36.8,30.14,NE,45,3.8,6.0,68,0.00,,,0.00,pywws,2013-02-28 14:57:00,
2013-02-28 15:02:00,46.8,36.8,30.14,East,90,2.2,6.0,68,0.00,,,0.00,pywws,2013-02-28 15:02:00,
2013-02-28 15:08:00,46.8,36.8,30.14,NNE,22,3.1,6.0,68,0.00,,,0.00,pywws,2013-02-28 15:08:00,
2013-02-28 15:13:00,46.9,36.6,30.14,NE,45,3.8,6.0,67,0.00,,,0.00,pywws,2013-02-28 15:13:00,
2013-02-28 15:19:00,46.9,37.3,30.13,ESE,112,2.2,6.0,69,0.00,,,0.00,pywws,2013-02-28 15:19:00,
2013-02-28 15:24:00,46.8,37.1,30.14,East,90,1.6,3.8,69,0.00,,,0.00,pywws,2013-02-28 15:24:00,
2013-02-28 15:29:00,46.4,36.8,30.14,East,90,3.8,9.8,69,0.00,,,0.00,pywws,2013-02-28 15:29:00,
2013-02-28 15:35:00,46.2,37.3,30.14,East,90,2.2,5.4,71,0.00,,,0.00,pywws,2013-02-28 15:35:00,
2013-02-28 15:40:00,46.4,37.5,30.14,East,90,0.7,3.1,71,0.00,,,0.00,pywws,2013-02-28 15:40:00,
2013-02-28 15:45:00,46.2,37.3,30.14,NE,45,2.2,3.8,71,0.00,,,0.00,pywws,2013-02-28 15:45:00,
2013-02-28 15:50:00,46.0,37.5,30.14,NE,45,3.1,6.0,72,0.00,,,0.00,pywws,2013-02-28 15:50:00,
2013-02-28 15:56:00,45.9,37.4,30.13,East,90,0.7,1.6,72,0.00,,,0.00,pywws,2013-02-28 15:56:00,
2013-02-28 16:01:00,45.9,37.4,30.13,NE,45,2.2,3.8,72,0.00,,,0.00,pywws,2013-02-28 16:01:00,
2013-02-28 16:06:00,45.9,37.4,30.13,NE,45,2.2,3.8,72,0.00,,,0.00,pywws,2013-02-28 16:06:00,
2013-02-28 16:11:00,45.3,37.5,30.13,NE,45,1.6,3.8,74,0.00,,,0.00,pywws,2013-02-28 16:11:00,
2013-02-28 16:16:00,45.1,37.7,30.13,NE,45,0.0,1.6,75,0.00,,,0.00,pywws,2013-02-28 16:16:00,
2013-02-28 16:21:00,45.0,37.5,30.13,SSW,202,1.6,5.4,75,0.00,,,0.00,pywws,2013-02-28 16:21:00,
2013-02-28 16:26:00,44.8,37.3,30.13,East,90,4.5,9.2,75,0.00,,,0.00,pywws,2013-02-28 16:26:00,
2013-02-28 16:31:00,44.6,37.2,30.14,NW,315,3.8,7.6,75,0.00,,,0.00,pywws,2013-02-28 16:31:00,
2013-02-28 16:36:00,44.4,37.3,30.13,North,0,3.8,6.9,76,0.00,,,0.00,pywws,2013-02-28 16:36:00,
2013-02-28 16:42:00,44.1,37.0,30.14,East,90,2.2,4.5,76,0.00,,,0.00,pywws,2013-02-28 16:42:00,
2013-02-28 16:47:00,44.2,37.2,30.13,North,0,1.6,3.1,76,0.00,,,0.00,pywws,2013-02-28 16:47:00,
2013-02-28 16:52:00,44.1,37.0,30.13,SE,135,2.2,3.8,76,0.00,,,0.00,pywws,2013-02-28 16:52:00,
2013-02-28 16:57:00,43.9,37.1,30.14,North,0,1.6,5.4,77,0.00,,,0.00,pywws,2013-02-28 16:57:00,
2013-02-28 17:02:00,43.7,37.0,30.14,East,90,0.7,2.2,77,0.00,,,0.00,pywws,2013-02-28 17:02:00,
2013-02-28 17:08:00,43.3,36.6,30.14,East,90,3.1,8.3,77,0.00,,,0.00,pywws,2013-02-28 17:08:00,
2013-02-28 17:13:00,43.2,36.8,30.13,NE,45,0.7,5.4,78,0.00,,,0.00,pywws,2013-02-28 17:13:00,
2013-02-28 17:18:00,43.2,36.8,30.13,NE,45,0.7,5.4,78,0.00,,,0.00,pywws,2013-02-28 17:18:00,
2013-02-28 17:23:00,42.6,36.6,30.14,NE,45,0.7,3.8,79,0.00,,,0.00,pywws,2013-02-28 17:23:00,
2013-02-28 17:28:00,42.6,36.6,30.13,East,90,0.7,2.2,79,0.00,,,0.00,pywws,2013-02-28 17:28:00,
2013-02-28 17:33:00,42.3,36.5,30.14,NE,45,1.6,5.4,80,0.00,,,0.00,pywws,2013-02-28 17:33:00,
2013-02-28 17:38:00,42.1,36.7,30.14,NE,45,0.7,2.2,81,0.00,,,0.00,pywws,2013-02-28 17:38:00,
2013-02-28 17:44:00,41.7,36.3,30.14,East,90,0.7,1.6,81,0.00,,,0.00,pywws,2013-02-28 17:44:00,
2013-02-28 17:49:00,41.5,36.5,30.14,NE,45,3.1,6.0,82,0.00,,,0.00,pywws,2013-02-28 17:49:00,
2013-02-28 17:54:00,41.5,36.5,30.14,ENE,68,0.7,3.1,82,0.00,,,0.00,pywws,2013-02-28 17:54:00,
2013-02-28 17:59:00,41.4,36.6,30.15,SE,135,2.2,4.5,83,0.00,,,0.00,pywws,2013-02-28 17:59:00,
2013-02-28 18:04:00,41.2,36.4,30.15,NE,45,0.7,3.1,83,0.00,,,0.00,pywws,2013-02-28 18:04:00,
2013-02-28 18:09:00,41.2,36.4,30.15,East,90,1.6,3.8,83,0.00,,,0.00,pywws,2013-02-28 18:09:00,
2013-02-28 18:15:00,40.8,36.4,30.15,ENE,68,2.2,6.0,84,0.00,,,0.00,pywws,2013-02-28 18:15:00,
2013-02-28 18:20:00,40.6,36.2,30.15,NW,315,0.7,2.2,84,0.00,,,0.00,pywws,2013-02-28 18:20:00,
2013-02-28 18:25:00,40.3,36.1,30.16,East,90,1.6,3.8,85,0.00,,,0.00,pywws,2013-02-28 18:25:00,
2013-02-28 18:30:00,40.1,36.3,30.16,NE,45,3.1,6.0,86,0.00,,,0.00,pywws,2013-02-28 18:30:00,
2013-02-28 18:35:00,39.9,36.1,30.16,East,90,1.6,4.5,86,0.00,,,0.00,pywws,2013-02-28 18:35:00,
2013-02-28 18:41:00,39.9,36.1,30.16,SE,135,0.7,3.8,86,0.00,,,0.00,pywws,2013-02-28 18:41:00,
2013-02-28 18:46:00,39.7,35.9,30.16,NNE,22,3.1,6.0,86,0.00,,,0.00,pywws,2013-02-28 18:46:00,
2013-02-28 18:52:00,39.6,35.7,30.16,East,90,1.6,3.1,86,0.00,,,0.00,pywws,2013-02-28 18:52:00,
2013-02-28 18:57:00,39.4,35.8,30.16,NE,45,0.0,2.2,87,0.00,,,0.00,pywws,2013-02-28 18:57:00,
2013-02-28 19:02:00,39.6,35.7,30.16,East,90,3.1,6.0,86,0.00,,,0.00,pywws,2013-02-28 19:02:00,
2013-02-28 19:07:00,39.4,35.8,30.16,East,90,1.6,3.8,87,0.00,,,0.00,pywws,2013-02-28 19:07:00,
2013-02-28 19:12:00,39.2,35.7,30.16,NE,45,1.6,5.4,87,0.00,,,0.00,pywws,2013-02-28 19:12:00,
2013-02-28 19:17:00,39.2,35.7,30.16,SE,135,3.1,6.0,87,0.00,,,0.00,pywws,2013-02-28 19:17:00,
2013-02-28 19:22:00,39.0,35.5,30.16,North,0,2.2,7.6,87,0.00,,,0.00,pywws,2013-02-28 19:22:00,
2013-02-28 19:28:00,38.8,35.3,30.16,East,90,0.7,3.8,87,0.00,,,0.00,pywws,2013-02-28 19:28:00,
2013-02-28 19:33:00,38.7,35.1,30.16,NE,45,0.7,2.2,87,0.00,,,0.00,pywws,2013-02-28 19:33:00,
2013-02-28 19:38:00,38.7,35.4,30.16,NE,45,2.2,3.8,88,0.00,,,0.00,pywws,2013-02-28 19:38:00,
2013-02-28 19:44:00,38.7,35.4,30.16,NE,45,3.1,6.0,88,0.00,,,0.00,pywws,2013-02-28 19:44:00,
2013-02-28 19:49:00,38.7,35.4,30.17,East,90,2.2,5.4,88,0.00,,,0.00,pywws,2013-02-28 19:49:00,
2013-02-28 19:54:00,38.7,35.4,30.17,ENE,68,1.6,3.1,88,0.00,,,0.00,pywws,2013-02-28 19:54:00,
2013-02-28 19:59:00,38.8,35.6,30.17,East,90,1.6,2.2,88,0.00,,,0.00,pywws,2013-02-28 19:59:00,
2013-02-28 20:04:00,38.8,35.6,30.17,East,90,1.6,2.2,88,0.00,,,0.00,pywws,2013-02-28 20:04:00,
2013-02-28 20:09:00,39.2,35.7,30.16,East,90,0.7,3.8,87,0.00,,,0.00,pywws,2013-02-28 20:09:00,
2013-02-28 20:14:00,39.2,35.7,30.16,East,90,0.7,3.8,87,0.00,,,0.00,pywws,2013-02-28 20:14:00,
2013-02-28 20:20:00,39.4,35.8,30.17,NE,45,0.7,2.2,87,0.00,,,0.00,pywws,2013-02-28 20:20:00,
2013-02-28 20:25:00,39.6,36.0,30.17,NW,315,1.6,5.4,87,0.00,,,0.00,pywws,2013-02-28 20:25:00,
2013-02-28 20:30:00,39.7,35.9,30.17,NE,45,1.6,4.5,86,0.00,,,0.00,pywws,2013-02-28 20:30:00,
2013-02-28 20:36:00,39.7,35.9,30.18,NE,45,2.2,4.5,86,0.00,,,0.00,pywws,2013-02-28 20:36:00,
2013-02-28 20:41:00,39.7,35.9,30.17,NNE,22,2.2,4.5,86,0.00,,,0.00,pywws,2013-02-28 20:41:00,
2013-02-28 20:46:00,39.7,35.9,30.18,NE,45,1.6,5.4,86,0.00,,,0.00,pywws,2013-02-28 20:46:00,
2013-02-28 20:51:00,39.7,35.9,30.18,East,90,2.2,4.5,86,0.00,,,0.00,pywws,2013-02-28 20:51:00,
2013-02-28 20:56:00,39.7,35.6,30.18,East,90,3.1,6.0,85,0.00,,,0.00,pywws,2013-02-28 20:56:00,
2013-02-28 21:02:00,39.9,35.8,30.18,East,90,2.2,3.8,85,0.00,,,0.00,pywws,2013-02-28 21:02:00,
2013-02-28 21:07:00,39.9,35.8,30.18,East,90,2.2,3.8,85,0.00,,,0.00,pywws,2013-02-28 21:07:00,
2013-02-28 21:12:00,39.9,35.8,30.18,North,0,1.6,4.5,85,0.00,,,0.00,pywws,2013-02-28 21:12:00,
2013-02-28 21:17:00,39.9,35.5,30.18,NE,45,1.6,3.8,84,0.00,,,0.00,pywws,2013-02-28 21:17:00,
2013-02-28 21:22:00,40.1,35.4,30.19,North,0,3.8,8.3,83,0.00,,,0.00,pywws,2013-02-28 21:22:00,
2013-02-28 21:28:00,39.9,34.6,30.19,East,90,2.2,5.4,81,0.00,,,0.00,pywws,2013-02-28 21:28:00,
2013-02-28 21:33:00,39.9,34.6,30.19,East,90,2.2,5.4,81,0.00,,,0.00,pywws,2013-02-28 21:33:00,
2013-02-28 21:38:00,39.6,33.6,30.19,NE,45,3.1,6.0,79,0.00,,,0.00,pywws,2013-02-28 21:38:00,
2013-02-28 21:43:00,39.6,33.6,30.19,NE,45,4.5,6.9,79,0.00,,,0.00,pywws,2013-02-28 21:43:00,
2013-02-28 21:48:00,39.4,33.4,30.19,North,0,3.1,4.5,79,0.00,,,0.00,pywws,2013-02-28 21:48:00,
2013-02-28 21:54:00,39.2,33.2,30.19,NE,45,3.8,6.9,79,0.00,,,0.00,pywws,2013-02-28 21:54:00,
2013-02-28 21:59:00,39.2,33.6,30.19,NE,45,3.1,5.4,80,0.00,,,0.00,pywws,2013-02-28 21:59:00,
2013-02-28 22:04:00,39.2,33.6,30.19,NE,45,3.1,5.4,80,0.00,,,0.00,pywws,2013-02-28 22:04:00,
2013-02-28 22:09:00,39.2,33.6,30.19,NE,45,3.1,5.4,80,0.00,,,0.00,pywws,2013-02-28 22:09:00,
2013-02-28 22:14:00,38.8,33.2,30.19,NE,45,5.4,7.6,80,0.00,,,0.00,pywws,2013-02-28 22:14:00,
2013-02-28 22:20:00,38.7,33.0,30.19,East,90,1.6,3.8,80,0.00,,,0.00,pywws,2013-02-28 22:20:00,
2013-02-28 22:25:00,38.7,33.3,30.19,NE,45,2.2,7.6,81,0.00,,,0.00,pywws,2013-02-28 22:25:00,
2013-02-28 22:30:00,38.3,32.4,30.19,East,90,3.1,6.0,79,0.00,,,0.00,pywws,2013-02-28 22:30:00,
2013-02-28 22:36:00,37.9,32.3,30.20,South,180,2.2,4.5,80,0.00,,,0.00,pywws,2013-02-28 22:36:00,
2013-02-28 22:41:00,37.8,32.2,30.20,NE,45,6.0,9.2,80,0.00,,,0.00,pywws,2013-02-28 22:41:00,
2013-02-28 22:46:00,37.8,32.2,30.20,NE,45,6.0,12.1,80,0.00,,,0.00,pywws,2013-02-28 22:46:00,
2013-02-28 22:51:00,37.6,32.3,30.20,North,0,3.1,6.9,81,0.00,,,0.00,pywws,2013-02-28 22:51:00,
2013-02-28 22:56:00,37.6,32.6,30.20,NE,45,2.2,6.9,82,0.00,,,0.00,pywws,2013-02-28 22:56:00,
2013-02-28 23:01:00,37.6,32.6,30.19,East,90,4.5,8.3,82,0.00,,,0.00,pywws,2013-02-28 23:01:00,
2013-02-28 23:06:00,37.6,32.6,30.20,East,90,4.5,8.3,82,0.00,,,0.00,pywws,2013-02-28 23:06:00,
2013-02-28 23:11:00,37.4,32.7,30.19,SE,135,2.2,4.5,83,0.00,,,0.00,pywws,2013-02-28 23:11:00,
2013-02-28 23:17:00,37.4,32.7,30.19,NE,45,3.8,6.9,83,0.00,,,0.00,pywws,2013-02-28 23:17:00,
2013-02-28 23:22:00,37.2,32.5,30.19,NE,45,1.6,3.8,83,0.00,,,0.00,pywws,2013-02-28 23:22:00,
2013-02-28 23:27:00,37.2,32.5,30.19,NE,45,2.2,6.0,83,0.00,,,0.00,pywws,2013-02-28 23:27:00,
2013-02-28 23:32:00,37.0,32.4,30.19,NE,45,3.1,9.2,83,0.00,,,0.00,pywws,2013-02-28 23:32:00,
2013-02-28 23:37:00,37.0,32.7,30.19,NE,45,5.4,10.7,84,0.00,,,0.00,pywws,2013-02-28 23:37:00,
2013-02-28 23:42:00,37.0,32.7,30.19,NE,45,4.5,6.9,84,0.00,,,0.00,pywws,2013-02-28 23:42:00,
2013-02-28 23:48:00,37.0,32.7,30.19,NE,45,3.8,6.0,84,0.00,,,0.00,pywws,2013-02-28 23:48:00,
2013-02-28 23:53:00,37.0,32.7,30.20,North,0,3.1,6.0,84,0.00,,,0.00,pywws,2013-02-28 23:53:00,
2013-02-28 23:58:00,37.0,32.7,30.20,NW,315,3.8,8.3,84,0.00,,,0.00,pywws,2013-02-28 23:58:00,